sensor_id;sensor_type;location;lat;lon;timestamp;P1;durP1;ratioP1;P2;durP2;ratioP2
75342;SDS011;63936;51.006;13.764;2022-12-13T00:00:01;14;;;8;;
75342;SDS011;63936;51.006;13.764;2022-12-13T00:02:01;13;;;7;;
75342;SDS011;63936;51.006;13.764;2022-12-13T00:04:02;13;;;7;;
75342;SDS011;63936;51.006;13.764;2022-12-13T00:06:03;15;;;9;;
75342;SDS011;63936;51.006;13.764;2022-12-13T00:08:01;13;;;7;;
75342;SDS011;63936;51.006;13.764;2022-12-13T00:10:02;13;;;8;;
75342;SDS011;63936;51.006;13.764;2022-12-13T00:12:02;13;;;8;;
75342;SDS011;63936;51.006;13.764;2022-12-13T00:14:02;13;;;8;;
75342;SDS011;63936;51.006;13.764;2022-12-13T00:16:02;14;;;9;;
75342;SDS011;63936;51.006;13.764;2022-12-13T00:18:02;14;;;9;;
75342;SDS011;63936;51.006;13.764;2022-12-13T00:20:01;15;;;8;;
75342;SDS011;63936;51.006;13.764;2022-12-13T00:22:01;14;;;8;;
75342;SDS011;63936;51.006;13.764;2022-12-13T00:24:01;13;;;6;;
75342;SDS011;63936;51.006;13.764;2022-12-13T00:26:02;13;;;6;;
75342;SDS011;63936;51.006;13.764;2022-12-13T00:28:01;13;;;8;;
75342;SDS011;63936;51.006;13.764;2022-12-13T00:30:02;15;;;9;;
75342;SDS011;63936;51.006;13.764;2022-12-13T00:32:01;10;;;6;;
75342;SDS011;63936;51.006;13.764;2022-12-13T00:34:01;10;;;6;;
75342;SDS011;63936;51.006;13.764;2022-12-13T00:36:02;14;;;8;;
75342;SDS011;63936;51.006;13.764;2022-12-13T00:38:01;14;;;8;;
75342;SDS011;63936;51.006;13.764;2022-12-13T00:40:01;14;;;8;;
75342;SDS011;63936;51.006;13.764;2022-12-13T00:42:01;13;;;8;;
75342;SDS011;63936;51.006;13.764;2022-12-13T00:44:02;13;;;8;;
75342;SDS011;63936;51.006;13.764;2022-12-13T00:46:01;14;;;9;;
75342;SDS011;63936;51.006;13.764;2022-12-13T00:48:01;14;;;9;;
75342;SDS011;63936;51.006;13.764;2022-12-13T00:50:02;13;;;8;;
75342;SDS011;63936;51.006;13.764;2022-12-13T00:52:01;12;;;7;;
75342;SDS011;63936;51.006;13.764;2022-12-13T00:54:01;12;;;6;;
75342;SDS011;63936;51.006;13.764;2022-12-13T00:56:02;10;;;5;;
75342;SDS011;63936;51.006;13.764;2022-12-13T00:58:01;10;;;5;;
75342;SDS011;63936;51.006;13.764;2022-12-13T01:00:03;13;;;8;;
75342;SDS011;63936;51.006;13.764;2022-12-13T01:02:04;11;;;7;;
75342;SDS011;63936;51.006;13.764;2022-12-13T01:04:03;11;;;7;;
75342;SDS011;63936;51.006;13.764;2022-12-13T01:06:07;13;;;8;;
75342;SDS011;63936;51.006;13.764;2022-12-13T01:08:03;13;;;8;;
75342;SDS011;63936;51.006;13.764;2022-12-13T01:10:04;14;;;8;;
75342;SDS011;63936;51.006;13.764;2022-12-13T01:12:03;12;;;6;;
75342;SDS011;63936;51.006;13.764;2022-12-13T01:14:02;12;;;6;;
75342;SDS011;63936;51.006;13.764;2022-12-13T01:16:02;14;;;8;;
75342;SDS011;63936;51.006;13.764;2022-12-13T01:18:01;14;;;8;;
75342;SDS011;63936;51.006;13.764;2022-12-13T01:20:02;13;;;8;;
75342;SDS011;63936;51.006;13.764;2022-12-13T01:22:03;12;;;6;;
75342;SDS011;63936;51.006;13.764;2022-12-13T01:24:02;12;;;6;;
75342;SDS011;63936;51.006;13.764;2022-12-13T01:26:04;10;;;5;;
75342;SDS011;63936;51.006;13.764;2022-12-13T01:28:02;12;;;7;;
75342;SDS011;63936;51.006;13.764;2022-12-13T01:30:04;12;;;7;;
75342;SDS011;63936;51.006;13.764;2022-12-13T01:32:01;13;;;8;;
75342;SDS011;63936;51.006;13.764;2022-12-13T01:34:01;13;;;7;;
75342;SDS011;63936;51.006;13.764;2022-12-13T01:36:04;13;;;7;;
75342;SDS011;63936;51.006;13.764;2022-12-13T01:38:02;14;;;8;;
75342;SDS011;63936;51.006;13.764;2022-12-13T01:40:03;14;;;8;;
75342;SDS011;63936;51.006;13.764;2022-12-13T01:42:03;15;;;9;;
75342;SDS011;63936;51.006;13.764;2022-12-13T01:44:03;15;;;9;;
75342;SDS011;63936;51.006;13.764;2022-12-13T01:46:02;15;;;9;;
75342;SDS011;63936;51.006;13.764;2022-12-13T01:48:02;15;;;9;;
75342;SDS011;63936;51.006;13.764;2022-12-13T01:50:03;15;;;9;;
75342;SDS011;63936;51.006;13.764;2022-12-13T01:52:04;14;;;8;;
75342;SDS011;63936;51.006;13.764;2022-12-13T01:54:02;14;;;8;;
75342;SDS011;63936;51.006;13.764;2022-12-13T01:56:03;15;;;9;;
75342;SDS011;63936;51.006;13.764;2022-12-13T01:58:02;15;;;9;;
75342;SDS011;63936;51.006;13.764;2022-12-13T02:00:02;16;;;10;;
75342;SDS011;63936;51.006;13.764;2022-12-13T02:02:02;11;;;7;;
75342;SDS011;63936;51.006;13.764;2022-12-13T02:04:01;11;;;7;;
75342;SDS011;63936;51.006;13.764;2022-12-13T02:06:03;14;;;9;;
75342;SDS011;63936;51.006;13.764;2022-12-13T02:08:02;13;;;7;;
75342;SDS011;63936;51.006;13.764;2022-12-13T02:10:03;13;;;7;;
75342;SDS011;63936;51.006;13.764;2022-12-13T02:12:01;15;;;10;;
75342;SDS011;63936;51.006;13.764;2022-12-13T02:14:01;15;;;10;;
75342;SDS011;63936;51.006;13.764;2022-12-13T02:16:03;15;;;10;;
75342;SDS011;63936;51.006;13.764;2022-12-13T02:18:05;15;;;10;;
75342;SDS011;63936;51.006;13.764;2022-12-13T02:20:10;15;;;10;;
75342;SDS011;63936;51.006;13.764;2022-12-13T02:22:03;13;;;8;;
75342;SDS011;63936;51.006;13.764;2022-12-13T02:24:07;13;;;8;;
75342;SDS011;63936;51.006;13.764;2022-12-13T02:26:06;17;;;10;;
75342;SDS011;63936;51.006;13.764;2022-12-13T02:28:04;15;;;8;;
75342;SDS011;63936;51.006;13.764;2022-12-13T02:30:13;14;;;8;;
75342;SDS011;63936;51.006;13.764;2022-12-13T02:32:03;14;;;8;;
75342;SDS011;63936;51.006;13.764;2022-12-13T02:34:04;16;;;10;;
75342;SDS011;63936;51.006;13.764;2022-12-13T02:36:04;16;;;10;;
75342;SDS011;63936;51.006;13.764;2022-12-13T02:38:02;15;;;10;;
75342;SDS011;63936;51.006;13.764;2022-12-13T02:40:04;15;;;10;;
75342;SDS011;63936;51.006;13.764;2022-12-13T02:42:03;16;;;10;;
75342;SDS011;63936;51.006;13.764;2022-12-13T02:44:03;16;;;10;;
75342;SDS011;63936;51.006;13.764;2022-12-13T02:46:01;15;;;9;;
75342;SDS011;63936;51.006;13.764;2022-12-13T02:48:02;15;;;9;;
75342;SDS011;63936;51.006;13.764;2022-12-13T02:50:03;16;;;10;;
75342;SDS011;63936;51.006;13.764;2022-12-13T02:52:02;16;;;10;;
75342;SDS011;63936;51.006;13.764;2022-12-13T02:54:02;17;;;10;;
75342;SDS011;63936;51.006;13.764;2022-12-13T02:56:01;17;;;10;;
75342;SDS011;63936;51.006;13.764;2022-12-13T02:58:01;16;;;9;;
75342;SDS011;63936;51.006;13.764;2022-12-13T03:00:05;16;;;9;;
75342;SDS011;63936;51.006;13.764;2022-12-13T03:02:03;17;;;10;;
75342;SDS011;63936;51.006;13.764;2022-12-13T03:04:05;13;;;8;;
75342;SDS011;63936;51.006;13.764;2022-12-13T03:06:08;13;;;8;;
75342;SDS011;63936;51.006;13.764;2022-12-13T03:08:05;15;;;9;;
75342;SDS011;63936;51.006;13.764;2022-12-13T03:10:04;15;;;9;;
75342;SDS011;63936;51.006;13.764;2022-12-13T03:12:05;16;;;10;;
75342;SDS011;63936;51.006;13.764;2022-12-13T03:14:02;16;;;10;;
75342;SDS011;63936;51.006;13.764;2022-12-13T03:16:04;17;;;10;;
75342;SDS011;63936;51.006;13.764;2022-12-13T03:18:01;17;;;10;;
75342;SDS011;63936;51.006;13.764;2022-12-13T03:20:02;16;;;9;;
75342;SDS011;63936;51.006;13.764;2022-12-13T03:22:02;16;;;9;;
75342;SDS011;63936;51.006;13.764;2022-12-13T03:24:01;15;;;9;;
75342;SDS011;63936;51.006;13.764;2022-12-13T03:26:02;12;;;7;;
75342;SDS011;63936;51.006;13.764;2022-12-13T03:28:01;12;;;7;;
75342;SDS011;63936;51.006;13.764;2022-12-13T03:30:02;16;;;9;;
75342;SDS011;63936;51.006;13.764;2022-12-13T03:32:01;15;;;10;;
75342;SDS011;63936;51.006;13.764;2022-12-13T03:34:01;15;;;10;;
75342;SDS011;63936;51.006;13.764;2022-12-13T03:36:02;15;;;9;;
75342;SDS011;63936;51.006;13.764;2022-12-13T03:38:02;15;;;9;;
75342;SDS011;63936;51.006;13.764;2022-12-13T03:40:01;15;;;9;;
75342;SDS011;63936;51.006;13.764;2022-12-13T03:42:01;15;;;9;;
75342;SDS011;63936;51.006;13.764;2022-12-13T03:44:02;15;;;9;;
75342;SDS011;63936;51.006;13.764;2022-12-13T03:46:01;15;;;9;;
75342;SDS011;63936;51.006;13.764;2022-12-13T03:48:02;15;;;9;;
75342;SDS011;63936;51.006;13.764;2022-12-13T03:50:02;15;;;9;;
75342;SDS011;63936;51.006;13.764;2022-12-13T03:52:02;15;;;9;;
75342;SDS011;63936;51.006;13.764;2022-12-13T03:54:02;15;;;9;;
75342;SDS011;63936;51.006;13.764;2022-12-13T03:56:03;14;;;9;;
75342;SDS011;63936;51.006;13.764;2022-12-13T03:58:01;14;;;9;;
75342;SDS011;63936;51.006;13.764;2022-12-13T04:00:03;15;;;9;;
75342;SDS011;63936;51.006;13.764;2022-12-13T04:02:01;15;;;9;;
75342;SDS011;63936;51.006;13.764;2022-12-13T04:04:03;16;;;10;;
75342;SDS011;63936;51.006;13.764;2022-12-13T04:06:05;16;;;10;;
75342;SDS011;63936;51.006;13.764;2022-12-13T04:08:01;15;;;9;;
75342;SDS011;63936;51.006;13.764;2022-12-13T04:10:02;15;;;9;;
75342;SDS011;63936;51.006;13.764;2022-12-13T04:12:02;15;;;9;;
75342;SDS011;63936;51.006;13.764;2022-12-13T04:14:02;15;;;9;;
75342;SDS011;63936;51.006;13.764;2022-12-13T04:16:02;15;;;9;;
75342;SDS011;63936;51.006;13.764;2022-12-13T04:18:01;17;;;10;;
75342;SDS011;63936;51.006;13.764;2022-12-13T04:20:01;17;;;11;;
75342;SDS011;63936;51.006;13.764;2022-12-13T04:22:01;18;;;12;;
75342;SDS011;63936;51.006;13.764;2022-12-13T04:24:01;18;;;12;;
75342;SDS011;63936;51.006;13.764;2022-12-13T04:26:01;16;;;10;;
75342;SDS011;63936;51.006;13.764;2022-12-13T04:28:01;15;;;9;;
75342;SDS011;63936;51.006;13.764;2022-12-13T04:30:02;17;;;10;;
75342;SDS011;63936;51.006;13.764;2022-12-13T04:32:02;17;;;10;;
75342;SDS011;63936;51.006;13.764;2022-12-13T04:34:01;17;;;10;;
75342;SDS011;63936;51.006;13.764;2022-12-13T04:36:02;16;;;10;;
75342;SDS011;63936;51.006;13.764;2022-12-13T04:38:02;16;;;10;;
75342;SDS011;63936;51.006;13.764;2022-12-13T04:40:02;17;;;10;;
75342;SDS011;63936;51.006;13.764;2022-12-13T04:42:02;17;;;10;;
75342;SDS011;63936;51.006;13.764;2022-12-13T04:44:02;16;;;9;;
75342;SDS011;63936;51.006;13.764;2022-12-13T04:46:01;16;;;9;;
75342;SDS011;63936;51.006;13.764;2022-12-13T04:48:01;17;;;10;;
75342;SDS011;63936;51.006;13.764;2022-12-13T04:50:02;17;;;10;;
75342;SDS011;63936;51.006;13.764;2022-12-13T04:52:02;15;;;9;;
75342;SDS011;63936;51.006;13.764;2022-12-13T04:54:02;15;;;9;;
75342;SDS011;63936;51.006;13.764;2022-12-13T04:56:02;16;;;9;;
75342;SDS011;63936;51.006;13.764;2022-12-13T04:58:02;16;;;9;;
75342;SDS011;63936;51.006;13.764;2022-12-13T05:00:02;16;;;9;;
75342;SDS011;63936;51.006;13.764;2022-12-13T05:02:01;16;;;9;;
75342;SDS011;63936;51.006;13.764;2022-12-13T05:04:01;16;;;10;;
75342;SDS011;63936;51.006;13.764;2022-12-13T05:06:03;16;;;10;;
75342;SDS011;63936;51.006;13.764;2022-12-13T05:08:01;16;;;10;;
75342;SDS011;63936;51.006;13.764;2022-12-13T05:10:02;16;;;9;;
75342;SDS011;63936;51.006;13.764;2022-12-13T05:12:02;16;;;9;;
75342;SDS011;63936;51.006;13.764;2022-12-13T05:14:02;15;;;9;;
75342;SDS011;63936;51.006;13.764;2022-12-13T05:16:02;15;;;9;;
75342;SDS011;63936;51.006;13.764;2022-12-13T05:18:01;16;;;9;;
75342;SDS011;63936;51.006;13.764;2022-12-13T05:20:01;15;;;9;;
75342;SDS011;63936;51.006;13.764;2022-12-13T05:22:01;16;;;9;;
75342;SDS011;63936;51.006;13.764;2022-12-13T05:24:01;16;;;9;;
75342;SDS011;63936;51.006;13.764;2022-12-13T05:26:02;17;;;10;;
75342;SDS011;63936;51.006;13.764;2022-12-13T05:28:01;15;;;9;;
75342;SDS011;63936;51.006;13.764;2022-12-13T05:30:02;17;;;10;;
75342;SDS011;63936;51.006;13.764;2022-12-13T05:32:01;17;;;10;;
75342;SDS011;63936;51.006;13.764;2022-12-13T05:34:01;19;;;12;;
75342;SDS011;63936;51.006;13.764;2022-12-13T05:36:02;19;;;12;;
75342;SDS011;63936;51.006;13.764;2022-12-13T05:38:02;17;;;10;;
75342;SDS011;63936;51.006;13.764;2022-12-13T05:40:01;17;;;10;;
75342;SDS011;63936;51.006;13.764;2022-12-13T05:42:01;17;;;11;;
75342;SDS011;63936;51.006;13.764;2022-12-13T05:44:01;17;;;11;;
75342;SDS011;63936;51.006;13.764;2022-12-13T05:46:01;18;;;11;;
75342;SDS011;63936;51.006;13.764;2022-12-13T05:48:01;18;;;11;;
75342;SDS011;63936;51.006;13.764;2022-12-13T05:50:02;23;;;13;;
75342;SDS011;63936;51.006;13.764;2022-12-13T05:52:01;23;;;13;;
75342;SDS011;63936;51.006;13.764;2022-12-13T05:54:02;24;;;13;;
75342;SDS011;63936;51.006;13.764;2022-12-13T05:56:02;24;;;13;;
75342;SDS011;63936;51.006;13.764;2022-12-13T05:58:02;29;;;17;;
75342;SDS011;63936;51.006;13.764;2022-12-13T06:00:02;29;;;17;;
75342;SDS011;63936;51.006;13.764;2022-12-13T06:02:02;19;;;11;;
75342;SDS011;63936;51.006;13.764;2022-12-13T06:04:02;17;;;10;;
75342;SDS011;63936;51.006;13.764;2022-12-13T06:06:03;16;;;9;;
75342;SDS011;63936;51.006;13.764;2022-12-13T06:08:01;15;;;8;;
75342;SDS011;63936;51.006;13.764;2022-12-13T06:10:02;15;;;8;;
75342;SDS011;63936;51.006;13.764;2022-12-13T06:12:01;20;;;12;;
75342;SDS011;63936;51.006;13.764;2022-12-13T06:14:01;20;;;12;;
75342;SDS011;63936;51.006;13.764;2022-12-13T06:16:02;20;;;13;;
75342;SDS011;63936;51.006;13.764;2022-12-13T06:18:01;20;;;13;;
75342;SDS011;63936;51.006;13.764;2022-12-13T06:20:02;20;;;12;;
75342;SDS011;63936;51.006;13.764;2022-12-13T06:22:02;17;;;10;;
75342;SDS011;63936;51.006;13.764;2022-12-13T06:24:02;15;;;9;;
75342;SDS011;63936;51.006;13.764;2022-12-13T06:26:01;13;;;7;;
75342;SDS011;63936;51.006;13.764;2022-12-13T06:28:01;13;;;7;;
75342;SDS011;63936;51.006;13.764;2022-12-13T06:30:03;19;;;11;;
75342;SDS011;63936;51.006;13.764;2022-12-13T06:32:02;19;;;12;;
75342;SDS011;63936;51.006;13.764;2022-12-13T06:34:03;19;;;12;;
75342;SDS011;63936;51.006;13.764;2022-12-13T06:36:03;19;;;11;;
75342;SDS011;63936;51.006;13.764;2022-12-13T06:38:02;19;;;11;;
75342;SDS011;63936;51.006;13.764;2022-12-13T06:40:05;20;;;12;;
75342;SDS011;63936;51.006;13.764;2022-12-13T06:42:03;20;;;12;;
75342;SDS011;63936;51.006;13.764;2022-12-13T06:44:02;20;;;12;;
75342;SDS011;63936;51.006;13.764;2022-12-13T06:46:05;20;;;12;;
75342;SDS011;63936;51.006;13.764;2022-12-13T06:48:02;18;;;11;;
75342;SDS011;63936;51.006;13.764;2022-12-13T06:50:04;18;;;11;;
75342;SDS011;63936;51.006;13.764;2022-12-13T06:52:02;17;;;10;;
75342;SDS011;63936;51.006;13.764;2022-12-13T06:54:01;17;;;10;;
75342;SDS011;63936;51.006;13.764;2022-12-13T06:56:04;17;;;10;;
75342;SDS011;63936;51.006;13.764;2022-12-13T06:58:02;17;;;10;;
75342;SDS011;63936;51.006;13.764;2022-12-13T07:00:02;19;;;11;;
75342;SDS011;63936;51.006;13.764;2022-12-13T07:02:02;19;;;11;;
75342;SDS011;63936;51.006;13.764;2022-12-13T07:04:02;18;;;11;;
75342;SDS011;63936;51.006;13.764;2022-12-13T07:06:05;18;;;11;;
75342;SDS011;63936;51.006;13.764;2022-12-13T07:08:01;18;;;11;;
75342;SDS011;63936;51.006;13.764;2022-12-13T07:10:02;18;;;11;;
75342;SDS011;63936;51.006;13.764;2022-12-13T07:12:02;21;;;12;;
75342;SDS011;63936;51.006;13.764;2022-12-13T07:14:02;21;;;12;;
75342;SDS011;63936;51.006;13.764;2022-12-13T07:16:02;19;;;12;;
75342;SDS011;63936;51.006;13.764;2022-12-13T07:18:02;19;;;12;;
75342;SDS011;63936;51.006;13.764;2022-12-13T07:20:09;19;;;11;;
75342;SDS011;63936;51.006;13.764;2022-12-13T07:22:02;19;;;11;;
75342;SDS011;63936;51.006;13.764;2022-12-13T07:24:01;18;;;11;;
75342;SDS011;63936;51.006;13.764;2022-12-13T07:26:02;17;;;10;;
75342;SDS011;63936;51.006;13.764;2022-12-13T07:28:03;19;;;11;;
75342;SDS011;63936;51.006;13.764;2022-12-13T07:30:03;19;;;11;;
75342;SDS011;63936;51.006;13.764;2022-12-13T07:32:02;19;;;11;;
75342;SDS011;63936;51.006;13.764;2022-12-13T07:34:01;19;;;11;;
75342;SDS011;63936;51.006;13.764;2022-12-13T07:36:02;18;;;11;;
75342;SDS011;63936;51.006;13.764;2022-12-13T07:38:02;18;;;11;;
75342;SDS011;63936;51.006;13.764;2022-12-13T07:40:05;20;;;12;;
75342;SDS011;63936;51.006;13.764;2022-12-13T07:42:02;20;;;12;;
75342;SDS011;63936;51.006;13.764;2022-12-13T07:44:02;23;;;13;;
75342;SDS011;63936;51.006;13.764;2022-12-13T07:46:03;23;;;13;;
75342;SDS011;63936;51.006;13.764;2022-12-13T07:48:03;20;;;12;;
75342;SDS011;63936;51.006;13.764;2022-12-13T07:50:01;20;;;12;;
75342;SDS011;63936;51.006;13.764;2022-12-13T07:52:01;20;;;12;;
75342;SDS011;63936;51.006;13.764;2022-12-13T07:54:01;20;;;12;;
75342;SDS011;63936;51.006;13.764;2022-12-13T07:56:02;20;;;11;;
75342;SDS011;63936;51.006;13.764;2022-12-13T07:58:03;20;;;11;;
75342;SDS011;63936;51.006;13.764;2022-12-13T08:00:03;20;;;11;;
75342;SDS011;63936;51.006;13.764;2022-12-13T08:02:01;20;;;11;;
75342;SDS011;63936;51.006;13.764;2022-12-13T08:04:01;20;;;12;;
75342;SDS011;63936;51.006;13.764;2022-12-13T08:06:02;20;;;12;;
75342;SDS011;63936;51.006;13.764;2022-12-13T08:08:02;19;;;11;;
75342;SDS011;63936;51.006;13.764;2022-12-13T08:10:02;18;;;10;;
75342;SDS011;63936;51.006;13.764;2022-12-13T08:12:02;18;;;10;;
75342;SDS011;63936;51.006;13.764;2022-12-13T08:14:02;17;;;10;;
75342;SDS011;63936;51.006;13.764;2022-12-13T08:16:02;17;;;10;;
75342;SDS011;63936;51.006;13.764;2022-12-13T08:18:02;20;;;13;;
75342;SDS011;63936;51.006;13.764;2022-12-13T08:20:04;20;;;13;;
75342;SDS011;63936;51.006;13.764;2022-12-13T08:22:02;19;;;11;;
75342;SDS011;63936;51.006;13.764;2022-12-13T08:24:02;19;;;11;;
75342;SDS011;63936;51.006;13.764;2022-12-13T08:26:03;19;;;12;;
75342;SDS011;63936;51.006;13.764;2022-12-13T08:28:01;19;;;12;;
75342;SDS011;63936;51.006;13.764;2022-12-13T08:30:02;23;;;14;;
75342;SDS011;63936;51.006;13.764;2022-12-13T08:32:02;23;;;14;;
75342;SDS011;63936;51.006;13.764;2022-12-13T08:34:02;22;;;13;;
75342;SDS011;63936;51.006;13.764;2022-12-13T08:36:06;20;;;12;;
75342;SDS011;63936;51.006;13.764;2022-12-13T08:38:01;20;;;12;;
75342;SDS011;63936;51.006;13.764;2022-12-13T08:40:03;24;;;14;;
75342;SDS011;63936;51.006;13.764;2022-12-13T08:42:01;24;;;14;;
75342;SDS011;63936;51.006;13.764;2022-12-13T08:44:01;22;;;13;;
75342;SDS011;63936;51.006;13.764;2022-12-13T08:46:02;22;;;13;;
75342;SDS011;63936;51.006;13.764;2022-12-13T08:48:02;21;;;12;;
75342;SDS011;63936;51.006;13.764;2022-12-13T08:50:02;21;;;12;;
75342;SDS011;63936;51.006;13.764;2022-12-13T08:52:01;19;;;12;;
75342;SDS011;63936;51.006;13.764;2022-12-13T08:54:01;19;;;12;;
75342;SDS011;63936;51.006;13.764;2022-12-13T08:56:02;18;;;11;;
75342;SDS011;63936;51.006;13.764;2022-12-13T08:58:03;17;;;10;;
75342;SDS011;63936;51.006;13.764;2022-12-13T09:00:03;17;;;10;;
75342;SDS011;63936;51.006;13.764;2022-12-13T09:02:01;18;;;11;;
75342;SDS011;63936;51.006;13.764;2022-12-13T09:04:01;18;;;11;;
75342;SDS011;63936;51.006;13.764;2022-12-13T09:06:05;18;;;11;;
75342;SDS011;63936;51.006;13.764;2022-12-13T09:08:02;17;;;10;;
75342;SDS011;63936;51.006;13.764;2022-12-13T09:10:02;17;;;10;;
75342;SDS011;63936;51.006;13.764;2022-12-13T09:12:01;17;;;10;;
75342;SDS011;63936;51.006;13.764;2022-12-13T09:14:02;15;;;9;;
75342;SDS011;63936;51.006;13.764;2022-12-13T09:16:03;15;;;9;;
75342;SDS011;63936;51.006;13.764;2022-12-13T09:18:01;20;;;12;;
75342;SDS011;63936;51.006;13.764;2022-12-13T09:20:04;13;;;8;;
75342;SDS011;63936;51.006;13.764;2022-12-13T09:22:02;13;;;8;;
75342;SDS011;63936;51.006;13.764;2022-12-13T09:24:01;17;;;8;;
75342;SDS011;63936;51.006;13.764;2022-12-13T09:26:02;17;;;8;;
75342;SDS011;63936;51.006;13.764;2022-12-13T09:28:01;17;;;8;;
75342;SDS011;63936;51.006;13.764;2022-12-13T09:30:01;14;;;8;;
75342;SDS011;63936;51.006;13.764;2022-12-13T09:32:01;14;;;8;;
75342;SDS011;63936;51.006;13.764;2022-12-13T09:34:01;15;;;9;;
75342;SDS011;63936;51.006;13.764;2022-12-13T09:36:02;12;;;8;;
75342;SDS011;63936;51.006;13.764;2022-12-13T09:38:01;12;;;8;;
75342;SDS011;63936;51.006;13.764;2022-12-13T09:40:02;15;;;9;;
75342;SDS011;63936;51.006;13.764;2022-12-13T09:42:01;13;;;7;;
75342;SDS011;63936;51.006;13.764;2022-12-13T09:44:02;12;;;6;;
75342;SDS011;63936;51.006;13.764;2022-12-13T09:46:04;12;;;6;;
75342;SDS011;63936;51.006;13.764;2022-12-13T09:48:02;14;;;8;;
75342;SDS011;63936;51.006;13.764;2022-12-13T09:50:05;14;;;8;;
75342;SDS011;63936;51.006;13.764;2022-12-13T09:52:02;14;;;8;;
75342;SDS011;63936;51.006;13.764;2022-12-13T09:54:01;17;;;10;;
75342;SDS011;63936;51.006;13.764;2022-12-13T09:56:02;17;;;10;;
75342;SDS011;63936;51.006;13.764;2022-12-13T09:58:04;16;;;9;;
75342;SDS011;63936;51.006;13.764;2022-12-13T10:00:04;16;;;9;;
75342;SDS011;63936;51.006;13.764;2022-12-13T10:02:02;14;;;8;;
75342;SDS011;63936;51.006;13.764;2022-12-13T10:04:01;14;;;8;;
75342;SDS011;63936;51.006;13.764;2022-12-13T10:06:08;14;;;7;;
75342;SDS011;63936;51.006;13.764;2022-12-13T10:08:03;15;;;8;;
75342;SDS011;63936;51.006;13.764;2022-12-13T10:10:01;15;;;8;;
75342;SDS011;63936;51.006;13.764;2022-12-13T10:12:01;16;;;9;;
75342;SDS011;63936;51.006;13.764;2022-12-13T10:14:03;16;;;9;;
75342;SDS011;63936;51.006;13.764;2022-12-13T10:16:03;14;;;9;;
75342;SDS011;63936;51.006;13.764;2022-12-13T10:18:02;14;;;9;;
75342;SDS011;63936;51.006;13.764;2022-12-13T10:20:03;15;;;10;;
75342;SDS011;63936;51.006;13.764;2022-12-13T10:22:02;15;;;8;;
75342;SDS011;63936;51.006;13.764;2022-12-13T10:24:02;12;;;6;;
75342;SDS011;63936;51.006;13.764;2022-12-13T10:26:02;12;;;6;;
75342;SDS011;63936;51.006;13.764;2022-12-13T10:28:02;17;;;10;;
75342;SDS011;63936;51.006;13.764;2022-12-13T10:30:05;17;;;11;;
75342;SDS011;63936;51.006;13.764;2022-12-13T10:32:01;15;;;9;;
75342;SDS011;63936;51.006;13.764;2022-12-13T10:34:01;15;;;9;;
75342;SDS011;63936;51.006;13.764;2022-12-13T10:36:06;18;;;10;;
75342;SDS011;63936;51.006;13.764;2022-12-13T10:38:02;18;;;10;;
75342;SDS011;63936;51.006;13.764;2022-12-13T10:40:02;20;;;11;;
75342;SDS011;63936;51.006;13.764;2022-12-13T10:42:01;17;;;10;;
75342;SDS011;63936;51.006;13.764;2022-12-13T10:44:12;16;;;10;;
75342;SDS011;63936;51.006;13.764;2022-12-13T10:46:01;18;;;8;;
75342;SDS011;63936;51.006;13.764;2022-12-13T10:48:01;17;;;8;;
75342;SDS011;63936;51.006;13.764;2022-12-13T10:50:01;16;;;8;;
75342;SDS011;63936;51.006;13.764;2022-12-13T10:52:01;16;;;8;;
75342;SDS011;63936;51.006;13.764;2022-12-13T10:54:01;16;;;8;;
75342;SDS011;63936;51.006;13.764;2022-12-13T10:56:02;20;;;12;;
75342;SDS011;63936;51.006;13.764;2022-12-13T10:58:02;20;;;12;;
75342;SDS011;63936;51.006;13.764;2022-12-13T11:00:02;22;;;15;;
75342;SDS011;63936;51.006;13.764;2022-12-13T11:02:02;22;;;15;;
75342;SDS011;63936;51.006;13.764;2022-12-13T11:04:02;16;;;9;;
75342;SDS011;63936;51.006;13.764;2022-12-13T11:06:02;6;;;3;;
75342;SDS011;63936;51.006;13.764;2022-12-13T11:08:20;16;;;7;;
75342;SDS011;63936;51.006;13.764;2022-12-13T11:10:14;17;;;9;;
75342;SDS011;63936;51.006;13.764;2022-12-13T11:12:02;13;;;7;;
75342;SDS011;63936;51.006;13.764;2022-12-13T11:14:01;13;;;7;;
75342;SDS011;63936;51.006;13.764;2022-12-13T11:16:01;22;;;13;;
75342;SDS011;63936;51.006;13.764;2022-12-13T11:18:02;22;;;15;;
75342;SDS011;63936;51.006;13.764;2022-12-13T11:20:03;21;;;11;;
75342;SDS011;63936;51.006;13.764;2022-12-13T11:22:02;18;;;10;;
75342;SDS011;63936;51.006;13.764;2022-12-13T11:24:02;18;;;10;;
75342;SDS011;63936;51.006;13.764;2022-12-13T11:26:04;16;;;8;;
75342;SDS011;63936;51.006;13.764;2022-12-13T11:28:05;16;;;8;;
75342;SDS011;63936;51.006;13.764;2022-12-13T11:30:07;9;;;4;;
75342;SDS011;63936;51.006;13.764;2022-12-13T11:32:02;10;;;5;;
75342;SDS011;63936;51.006;13.764;2022-12-13T11:34:02;18;;;8;;
75342;SDS011;63936;51.006;13.764;2022-12-13T11:36:05;17;;;8;;
75342;SDS011;63936;51.006;13.764;2022-12-13T11:38:02;16;;;8;;
75342;SDS011;63936;51.006;13.764;2022-12-13T11:40:03;16;;;8;;
75342;SDS011;63936;51.006;13.764;2022-12-13T11:42:03;20;;;12;;
75342;SDS011;63936;51.006;13.764;2022-12-13T11:44:02;19;;;13;;
75342;SDS011;63936;51.006;13.764;2022-12-13T11:46:04;19;;;13;;
75342;SDS011;63936;51.006;13.764;2022-12-13T11:48:03;16;;;8;;
75342;SDS011;63936;51.006;13.764;2022-12-13T11:50:02;16;;;8;;
75342;SDS011;63936;51.006;13.764;2022-12-13T11:52:03;10;;;6;;
75342;SDS011;63936;51.006;13.764;2022-12-13T11:54:02;10;;;6;;
75342;SDS011;63936;51.006;13.764;2022-12-13T11:56:04;12;;;7;;
75342;SDS011;63936;51.006;13.764;2022-12-13T11:58:02;13;;;7;;
75342;SDS011;63936;51.006;13.764;2022-12-13T12:00:03;16;;;8;;
75342;SDS011;63936;51.006;13.764;2022-12-13T12:02:02;14;;;8;;
75342;SDS011;63936;51.006;13.764;2022-12-13T12:04:05;9;;;5;;
75342;SDS011;63936;51.006;13.764;2022-12-13T12:06:03;9;;;5;;
75342;SDS011;63936;51.006;13.764;2022-12-13T12:08:03;18;;;11;;
75342;SDS011;63936;51.006;13.764;2022-12-13T12:10:03;15;;;10;;
75342;SDS011;63936;51.006;13.764;2022-12-13T12:12:03;15;;;8;;
75342;SDS011;63936;51.006;13.764;2022-12-13T12:14:03;15;;;8;;
75342;SDS011;63936;51.006;13.764;2022-12-13T12:16:04;17;;;10;;
75342;SDS011;63936;51.006;13.764;2022-12-13T12:18:02;19;;;8;;
75342;SDS011;63936;51.006;13.764;2022-12-13T12:20:01;19;;;8;;
75342;SDS011;63936;51.006;13.764;2022-12-13T12:22:05;19;;;8;;
75342;SDS011;63936;51.006;13.764;2022-12-13T12:24:08;13;;;7;;
75342;SDS011;63936;51.006;13.764;2022-12-13T12:26:02;14;;;7;;
75342;SDS011;63936;51.006;13.764;2022-12-13T12:28:03;14;;;7;;
75342;SDS011;63936;51.006;13.764;2022-12-13T12:30:07;14;;;7;;
75342;SDS011;63936;51.006;13.764;2022-12-13T12:32:02;19;;;10;;
75342;SDS011;63936;51.006;13.764;2022-12-13T12:34:02;14;;;8;;
75342;SDS011;63936;51.006;13.764;2022-12-13T12:36:05;14;;;8;;
75342;SDS011;63936;51.006;13.764;2022-12-13T12:38:05;17;;;10;;
75342;SDS011;63936;51.006;13.764;2022-12-13T12:40:06;17;;;10;;
75342;SDS011;63936;51.006;13.764;2022-12-13T12:42:05;16;;;9;;